Time;durP1;ratioP1;P1;durP2;ratioP2;P2;SDS_P1;SDS_P2;PMS_P1;PMS_P2;Temp;Humidity;BMP_temperature;BMP_pressure;BME280_temperature;BME280_humidity;BME280_pressure;Samples;Min_cycle;Max_cycle;Signal;HPM_P1;HPM_P2
2022/06/21 00:01:09;;;;;;;;;;;;;;;16.55;55.10;99843.38;1088268;54;19951;-80
2022/06/21 00:02:48;;;;;;;;;;;;;;;;;;;;;
2022/06/21 00:05:42;;;;;;;;;;;;;;;16.55;55.24;99844.19;1089391;47;19951;-82
2022/06/21 00:06:44;;;;;;;;;;;;;;;16.52;55.59;99837.31;1088192;54;19942;-80
2022/06/21 00:07:56;;;;;;;;;;;;;;;16.51;55.51;99835.66;1088122;54;19927;-81
2022/06/21 00:08:58;;;;;;;;;;;;;;;16.50;55.44;99836.66;1090047;47;19933;-81
2022/06/21 00:10:09;;;;;;;;;;;;;;;16.50;55.37;99833.16;1088425;54;19950;-81
2022/06/21 00:11:17;;;;;;;;;;;;;;;16.43;55.85;99833.06;1090298;47;19973;-81
2022/06/21 00:12:32;;;;;;;;;;;;;;;16.42;55.75;99830.56;1092128;46;20669;-81
2022/06/21 00:15:24;;;;;;;;;;;;;;;16.37;55.92;99833.81;1088479;46;19957;-80
2022/06/21 00:17:06;;;;;;;;;;;;;;;16.38;55.81;99835.50;1088552;54;19931;-81
2022/06/21 00:46:49;;;;;;;;;;;;;;;;;;;;;
2022/06/21 00:47:58;;;;;;;;;;;;;;;15.71;58.17;99845.31;1088100;54;19939;-81
2022/06/21 00:49:02;;;;;;;;;;;;;;;15.63;59.16;99830.06;1088124;54;19938;-80
2022/06/21 00:50:12;;;;;;;;;;;;;;;15.64;58.78;99837.13;1088144;46;19981;-80
2022/06/21 00:51:15;;;;;;;;;;;;;;;15.67;58.48;99838.59;1091655;46;19995;-81
2022/06/21 00:52:22;;;;;;;;;;;;;;;15.65;58.69;99841.50;1088066;54;19942;-81
2022/06/21 00:53:25;;;;;;;;;;;;;;;15.55;59.42;99835.50;1088332;54;19950;-79
2022/06/21 00:54:32;;;;;;;;;;;;;;;15.39;59.76;99839.19;1088304;54;19934;-79
2022/06/21 00:55:45;;;;;;;;;;;;;;;15.33;60.13;99837.22;1088322;54;20646;-80
2022/06/21 00:56:52;;;;;;;;;;;;;;;15.31;59.96;99845.47;1088725;54;19942;-79
2022/06/21 00:57:55;;;;;;;;;;;;;;;15.32;60.16;99847.16;1088681;54;19949;-80
2022/06/21 00:58:59;;;;;;;;;;;;;;;15.35;59.78;99844.09;1088617;54;19942;-80
2022/06/21 01:00:22;;;;;;;;;;;;;;;15.33;59.94;99848.81;1088665;54;19943;-81
2022/06/21 01:01:30;;;;;;;;;;;;;;;15.29;60.35;99834.06;1088681;54;19931;-80
2022/06/21 01:02:33;;;;;;;;;;;;;;;15.27;60.77;99833.41;1088604;54;19962;-80
2022/06/21 01:03:39;;;;;;;;;;;;;;;15.31;60.51;99828.47;1088669;54;19942;-81
2022/06/21 01:04:42;;;;;;;;;;;;;;;15.32;60.81;99831.00;1088659;54;19958;-80
2022/06/21 01:05:46;;;;;;;;;;;;;;;15.33;60.31;99832.66;1088627;54;19927;-80
2022/06/21 01:06:50;;;;;;;;;;;;;;;15.31;60.72;99826.63;1088678;54;19923;-82
2022/06/21 01:09:00;;;;;;;;;;;;;;;15.27;60.90;99822.63;1083833;54;19975;-77
2022/06/21 01:10:03;;;;;;;;;;;;;;;15.25;60.68;99819.28;1086983;54;19949;-77
2022/06/21 01:11:11;;;;;;;;;;;;;;;15.19;61.08;99820.81;1085336;54;19973;-77
2022/06/21 01:12:15;;;;;;;;;;;;;;;15.17;61.38;99820.16;1084923;46;19954;-79
2022/06/21 01:13:32;;;;;;;;;;;;;;;15.18;60.77;99824.53;1085023;47;19947;-77
2022/06/21 01:14:35;;;;;;;;;;;;;;;15.08;61.77;99830.19;1084856;54;20401;-77
2022/06/21 01:15:40;;;;;;;;;;;;;;;15.04;61.91;99828.03;1085799;54;19991;-77
2022/06/21 01:16:44;;;;;;;;;;;;;;;15.02;61.46;99830.88;1086742;54;19957;-78
2022/06/21 01:17:48;;;;;;;;;;;;;;;14.93;62.06;99829.25;1087249;46;19962;-78
2022/06/21 01:18:50;;;;;;;;;;;;;;;14.91;61.81;99817.84;1087046;46;19954;-77
2022/06/21 01:19:57;;;;;;;;;;;;;;;14.89;62.15;99823.41;1088510;46;19943;-78
2022/06/21 01:21:00;;;;;;;;;;;;;;;14.91;61.84;99813.28;1087245;54;19950;-78
2022/06/21 01:22:08;;;;;;;;;;;;;;;14.95;62.00;99825.41;1086694;54;19958;-78
2022/06/21 01:23:21;;;;;;;;;;;;;;;14.94;61.92;99823.72;1086942;54;19973;-78
2022/06/21 01:24:38;;;;;;;;;;;;;;;14.85;62.55;99819.41;1085962;54;19954;-79
2022/06/21 01:25:51;;;;;;;;;;;;;;;14.79;62.77;99826.34;1087037;54;19939;-79
2022/06/21 01:27:00;;;;;;;;;;;;;;;14.75;62.68;99825.00;1086893;54;19941;-78
2022/06/21 01:28:02;;;;;;;;;;;;;;;14.71;63.10;99818.31;1087752;39;20342;-79
2022/06/21 01:29:08;;;;;;;;;;;;;;;14.61;63.88;99813.09;1086613;54;19990;-79
2022/06/21 01:30:09;;;;;;;;;;;;;;;14.55;63.69;99813.00;1086946;54;19951;-79
2022/06/21 01:31:13;;;;;;;;;;;;;;;14.56;63.51;99807.44;1086209;54;19957;-78
2022/06/21 01:32:14;;;;;;;;;;;;;;;14.47;63.44;99800.44;1086350;54;19953;-78
2022/06/21 01:33:20;;;;;;;;;;;;;;;14.40;63.24;99804.84;1086249;54;19962;-78
2022/06/21 01:34:22;;;;;;;;;;;;;;;14.33;63.36;99800.16;1085949;54;19957;-79
2022/06/21 01:35:33;;;;;;;;;;;;;;;14.33;62.91;99804.69;1086509;54;19966;-77
2022/06/21 01:36:36;;;;;;;;;;;;;;;14.30;63.19;99805.03;1085496;54;19943;-77
2022/06/21 01:37:40;;;;;;;;;;;;;;;14.20;63.09;99800.72;1086099;54;19950;-77
2022/06/21 01:38:43;;;;;;;;;;;;;;;14.23;63.09;99812.13;1086161;54;20496;-79
2022/06/21 01:39:52;;;;;;;;;;;;;;;14.15;63.54;99805.78;1085787;54;19947;-80
2022/06/21 01:40:57;;;;;;;;;;;;;;;14.14;63.79;99808.63;1086609;54;19950;-79
2022/06/21 01:42:05;;;;;;;;;;;;;;;14.20;63.30;99806.09;1086340;54;20073;-78
2022/06/21 01:43:09;;;;;;;;;;;;;;;14.15;63.61;99808.47;1086304;54;19947;-79
2022/06/21 01:44:17;;;;;;;;;;;;;;;14.11;63.77;99812.50;1086713;54;19946;-78
2022/06/21 01:45:20;;;;;;;;;;;;;;;14.10;63.85;99816.19;1087111;54;19970;-79
2022/06/21 01:46:26;;;;;;;;;;;;;;;14.09;64.01;99814.53;1086964;47;19949;-78
2022/06/21 01:47:30;;;;;;;;;;;;;;;14.05;64.32;99815.91;1086598;54;19953;-81
2022/06/21 01:48:37;;;;;;;;;;;;;;;14.05;63.93;99818.59;1086893;54;19953;-80
2022/06/21 01:49:41;;;;;;;;;;;;;;;14.00;64.15;99813.72;1088908;46;20030;-79
2022/06/21 01:50:55;;;;;;;;;;;;;;;14.02;63.93;99809.03;1087640;54;19942;-82
2022/06/21 01:51:57;;;;;;;;;;;;;;;14.01;64.28;99801.13;1089519;46;19961;-78
2022/06/21 01:53:01;;;;;;;;;;;;;;;14.01;64.05;99801.97;1088082;46;19974;-80
2022/06/21 01:54:06;;;;;;;;;;;;;;;14.05;64.15;99802.47;1086871;46;19945;-79
2022/06/21 01:55:13;;;;;;;;;;;;;;;14.06;63.92;99804.13;1087316;54;19995;-81
2022/06/21 01:56:15;;;;;;;;;;;;;;;14.10;63.75;99805.44;1088133;46;19949;-82
2022/06/21 01:57:22;;;;;;;;;;;;;;;14.09;63.95;99803.78;1087964;54;20011;-82
2022/06/21 01:58:26;;;;;;;;;;;;;;;14.09;64.23;99808.31;1088111;54;19943;-82
2022/06/21 01:59:33;;;;;;;;;;;;;;;14.09;64.01;99803.78;1088058;54;19954;-81
2022/06/21 02:00:36;;;;;;;;;;;;;;;14.14;63.98;99793.34;1088535;46;19943;-82
2022/06/21 02:01:42;;;;;;;;;;;;;;;14.16;63.78;99788.66;1087856;54;20303;-81
2022/06/21 02:02:44;;;;;;;;;;;;;;;14.08;64.14;99794.03;1087459;54;19942;-80
2022/06/21 02:03:52;;;;;;;;;;;;;;;13.96;64.49;99782.00;1087363;54;19943;-80
2022/06/21 02:04:54;;;;;;;;;;;;;;;13.89;64.85;99782.69;1087523;54;19942;-83
2022/06/21 02:06:00;;;;;;;;;;;;;;;13.84;65.37;99786.88;1087495;54;20038;-82
2022/06/21 02:07:06;;;;;;;;;;;;;;;13.81;65.63;99787.25;1087451;54;19942;-83
2022/06/21 02:08:10;;;;;;;;;;;;;;;13.85;65.70;99777.81;1087815;54;19942;-82
2022/06/21 02:09:18;;;;;;;;;;;;;;;13.82;65.28;99779.00;1089164;46;20010;-81
2022/06/21 02:10:22;;;;;;;;;;;;;;;13.85;65.33;99777.81;1087937;54;19943;-83
2022/06/21 02:11:28;;;;;;;;;;;;;;;13.79;65.52;99776.66;1087688;47;19949;-82
2022/06/21 02:12:32;;;;;;;;;;;;;;;13.73;65.80;99774.66;1087914;54;19942;-81
2022/06/21 02:13:39;;;;;;;;;;;;;;;13.69;65.85;99782.22;1087904;54;19943;-84
2022/06/21 02:14:42;;;;;;;;;;;;;;;13.72;65.84;99776.53;1087321;54;19950;-80
2022/06/21 02:15:49;;;;;;;;;;;;;;;13.73;65.45;99771.97;1087075;54;19943;-83
2022/06/21 02:16:52;;;;;;;;;;;;;;;13.69;66.06;99770.66;1087745;54;19950;-80
2022/06/21 02:17:56;;;;;;;;;;;;;;;13.74;65.75;99768.28;1087499;54;20555;-81
2022/06/21 02:18:58;;;;;;;;;;;;;;;13.77;65.35;99767.97;1087473;54;19926;-80
2022/06/21 02:20:05;;;;;;;;;;;;;;;13.83;64.98;99761.06;1087806;46;19950;-79
2022/06/21 02:21:10;;;;;;;;;;;;;;;13.86;64.92;99766.91;1087209;54;19946;-79
2022/06/21 02:22:15;;;;;;;;;;;;;;;13.92;64.72;99764.53;1086938;54;19949;-79
2022/06/21 02:23:17;;;;;;;;;;;;;;;13.96;64.54;99749.75;1087026;54;19955;-80
2022/06/21 02:24:23;;;;;;;;;;;;;;;14.01;64.19;99769.72;1087011;54;19951;-81
2022/06/21 02:25:25;;;;;;;;;;;;;;;14.07;63.86;99762.81;1086359;54;19974;-79
2022/06/21 02:26:31;;;;;;;;;;;;;;;14.10;64.17;99767.81;1086139;54;20002;-79
2022/06/21 02:27:35;;;;;;;;;;;;;;;14.12;63.92;99763.13;1086550;54;19985;-79
2022/06/21 02:28:39;;;;;;;;;;;;;;;14.14;63.70;99762.94;1086373;54;19957;-80
2022/06/21 02:29:42;;;;;;;;;;;;;;;14.15;63.46;99770.84;1086812;54;19953;-80
2022/06/21 02:30:46;;;;;;;;;;;;;;;14.15;63.61;99770.84;1086917;54;19951;-81
2022/06/21 02:31:47;;;;;;;;;;;;;;;14.13;63.55;99774.69;1088018;46;19950;-79
2022/06/21 02:32:52;;;;;;;;;;;;;;;14.09;63.91;99774.19;1087371;39;20823;-80
2022/06/21 02:33:55;;;;;;;;;;;;;;;14.09;63.87;99778.75;1086922;54;19946;-79
2022/06/21 02:35:02;;;;;;;;;;;;;;;14.06;64.01;99777.25;1086723;47;19974;-79
2022/06/21 02:36:06;;;;;;;;;;;;;;;14.03;63.80;99774.91;1087037;54;19943;-79
2022/06/21 02:37:10;;;;;;;;;;;;;;;14.02;63.91;99776.78;1087523;54;19986;-80
2022/06/21 02:38:17;;;;;;;;;;;;;;;13.95;64.17;99777.63;1087316;54;20014;-80
2022/06/21 02:39:21;;;;;;;;;;;;;;;13.95;63.89;99775.78;1087331;54;19943;-79
2022/06/21 02:40:26;;;;;;;;;;;;;;;13.97;63.79;99772.94;1087175;54;19946;-80
2022/06/21 02:41:29;;;;;;;;;;;;;;;13.99;63.75;99769.06;1087004;54;19951;-80
2022/06/21 02:42:35;;;;;;;;;;;;;;;13.97;63.93;99773.75;1087253;54;19947;-80
2022/06/21 02:43:40;;;;;;;;;;;;;;;13.99;63.56;99762.81;1087305;54;19971;-79
2022/06/21 02:44:47;;;;;;;;;;;;;;;13.99;63.51;99766.38;1087780;46;19957;-79
2022/06/21 02:45:51;;;;;;;;;;;;;;;14.02;63.38;99771.41;1086608;54;19947;-78
2022/06/21 02:46:56;;;;;;;;;;;;;;;14.05;63.39;99764.84;1086770;54;19947;-80
2022/06/21 02:48:01;;;;;;;;;;;;;;;14.09;63.40;99771.53;1090834;39;20467;-79
2022/06/21 02:49:08;;;;;;;;;;;;;;;14.11;63.12;99768.69;1086615;54;19962;-79
2022/06/21 02:50:20;;;;;;;;;;;;;;;14.10;63.25;99778.56;1087072;54;19947;-83
2022/06/21 02:51:27;;;;;;;;;;;;;;;14.11;62.90;99772.19;1087743;46;19946;-79
2022/06/21 02:52:30;;;;;;;;;;;;;;;14.05;63.05;99775.59;1086670;54;19947;-80
2022/06/21 02:53:36;;;;;;;;;;;;;;;13.93;63.14;99776.97;1088321;39;20650;-80
2022/06/21 02:54:41;;;;;;;;;;;;;;;13.94;63.21;99773.28;1086980;54;19946;-81
2022/06/21 02:55:46;;;;;;;;;;;;;;;13.99;63.41;99770.88;1086997;54;19950;-80
2022/06/21 02:56:51;;;;;;;;;;;;;;;13.98;63.42;99767.38;1086765;54;19950;-79
2022/06/21 02:57:58;;;;;;;;;;;;;;;13.97;63.58;99760.31;1087003;54;19950;-79
2022/06/21 02:59:05;;;;;;;;;;;;;;;13.91;64.22;99773.59;1087249;54;19950;-80
2022/06/21 03:00:08;;;;;;;;;;;;;;;13.93;63.96;99763.53;1087207;54;19949;-80
2022/06/21 03:01:17;;;;;;;;;;;;;;;13.87;64.65;99768.59;1087520;54;19950;-80
2022/06/21 03:02:21;;;;;;;;;;;;;;;13.89;64.18;99763.88;1089280;46;20422;-80
2022/06/21 03:03:28;;;;;;;;;;;;;;;13.93;63.85;99763.53;1086723;54;19950;-79
2022/06/21 03:04:32;;;;;;;;;;;;;;;13.96;63.72;99761.31;1087207;54;19942;-80
2022/06/21 03:05:36;;;;;;;;;;;;;;;13.96;63.93;99765.88;1087679;54;19954;-81
2022/06/21 03:06:39;;;;;;;;;;;;;;;13.98;63.97;99763.88;1086807;54;19945;-79
2022/06/21 03:07:43;;;;;;;;;;;;;;;13.98;63.87;99772.75;1086496;54;19968;-78
2022/06/21 03:08:50;;;;;;;;;;;;;;;13.98;63.83;99764.69;1086818;54;20733;-79
2022/06/21 03:09:54;;;;;;;;;;;;;;;14.00;63.60;99768.03;1085611;54;20100;-78
2022/06/21 03:10:56;;;;;;;;;;;;;;;14.04;63.22;99768.53;1085812;54;19947;-78
2022/06/21 03:12:02;;;;;;;;;;;;;;;14.04;63.35;99757.78;1085802;54;19954;-78
2022/06/21 03:13:06;;;;;;;;;;;;;;;14.04;63.49;99760.47;1086700;39;20287;-78
2022/06/21 03:14:14;;;;;;;;;;;;;;;14.04;63.22;99750.53;1086360;54;19942;-78
2022/06/21 03:15:15;;;;;;;;;;;;;;;14.03;63.81;99750.72;1086337;54;19950;-78
2022/06/21 03:16:20;;;;;;;;;;;;;;;14.03;63.71;99756.94;1085662;54;19981;-77
2022/06/21 03:17:23;;;;;;;;;;;;;;;14.03;63.69;99743.50;1086015;54;20642;-78
2022/06/21 03:18:28;;;;;;;;;;;;;;;14.01;63.52;99744.69;1086576;54;19951;-79
2022/06/21 03:19:35;;;;;;;;;;;;;;;13.99;63.34;99750.25;1087130;46;19943;-78
2022/06/21 03:20:37;;;;;;;;;;;;;;;13.95;63.22;99742.69;1086802;54;19950;-77
2022/06/21 03:21:41;;;;;;;;;;;;;;;13.81;63.67;99750.47;1087155;54;20040;-78
2022/06/21 03:22:42;;;;;;;;;;;;;;;13.80;63.66;99750.66;1086914;54;19939;-79
2022/06/21 03:23:47;;;;;;;;;;;;;;;13.81;63.56;99741.56;1087102;54;20433;-79
2022/06/21 03:24:49;;;;;;;;;;;;;;;13.79;63.25;99744.41;1086924;54;19946;-79
2022/06/21 03:25:54;;;;;;;;;;;;;;;13.70;63.40;99740.09;1087169;54;19954;-78
2022/06/21 03:27:00;;;;;;;;;;;;;;;13.55;63.49;99738.13;1086386;54;19946;-78
2022/06/21 03:28:04;;;;;;;;;;;;;;;13.44;63.60;99734.97;1086311;54;20595;-78
2022/06/21 03:29:05;;;;;;;;;;;;;;;13.47;63.38;99729.22;1086582;54;19950;-79
2022/06/21 03:30:12;;;;;;;;;;;;;;;13.42;63.72;99729.75;1086503;54;19990;-78
2022/06/21 03:31:16;;;;;;;;;;;;;;;13.39;63.85;99735.47;1086511;54;19953;-78
2022/06/21 03:32:20;;;;;;;;;;;;;;;13.34;63.89;99738.66;1086527;54;20006;-78
2022/06/21 03:33:21;;;;;;;;;;;;;;;13.34;63.92;99730.59;1086800;54;19951;-79
2022/06/21 03:34:26;;;;;;;;;;;;;;;13.36;63.98;99727.72;1086038;54;19973;-79
2022/06/21 03:35:30;;;;;;;;;;;;;;;13.35;63.72;99723.38;1086334;54;19981;-79
2022/06/21 03:36:34;;;;;;;;;;;;;;;13.33;63.59;99717.31;1088074;39;20651;-79
2022/06/21 03:37:39;;;;;;;;;;;;;;;13.29;63.99;99716.00;1086041;54;19962;-79
2022/06/21 03:38:42;;;;;;;;;;;;;;;13.32;64.06;99719.19;1086158;54;20520;-78
2022/06/21 03:42:34;;;;;;;;;;;;;;;13.21;64.11;99715.00;1086157;54;19954;-79
2022/06/21 03:43:37;;;;;;;;;;;;;;;13.20;64.25;99717.84;1086449;54;19954;-79
2022/06/21 03:44:43;;;;;;;;;;;;;;;13.20;64.35;99702.59;1086581;47;19946;-79
2022/06/21 03:45:49;;;;;;;;;;;;;;;13.19;64.45;99700.91;1087008;39;20458;-79
2022/06/21 03:46:55;;;;;;;;;;;;;;;13.22;63.69;99700.59;1088905;39;20463;-78
2022/06/21 03:47:59;;;;;;;;;;;;;;;13.19;64.38;99700.06;1086242;54;19973;-78
2022/06/21 03:49:05;;;;;;;;;;;;;;;13.16;64.34;99695.88;1086600;54;19947;-79
2022/06/21 03:50:10;;;;;;;;;;;;;;;13.19;64.17;99700.91;1086037;54;19970;-79
2022/06/21 03:51:16;;;;;;;;;;;;;;;13.17;63.88;99694.88;1086129;54;19947;-79
2022/06/21 03:52:41;;;;;;;;;;;;;;;13.21;63.81;99700.75;1086229;54;19950;-81
2022/06/21 03:53:46;;;;;;;;;;;;;;;13.26;63.57;99696.53;1086048;54;19947;-79
2022/06/21 03:54:49;;;;;;;;;;;;;;;13.27;63.41;99700.91;1086816;39;20684;-78
2022/06/21 03:55:56;;;;;;;;;;;;;;;13.34;63.26;99703.75;1086039;54;19946;-79
2022/06/21 03:57:00;;;;;;;;;;;;;;;13.40;63.04;99705.78;1086301;54;19950;-78
2022/06/21 03:58:08;;;;;;;;;;;;;;;13.49;62.48;99705.75;1086413;54;20053;-78
2022/06/21 03:59:11;;;;;;;;;;;;;;;13.48;62.29;99704.06;1086443;54;19954;-79
2022/06/21 04:00:16;;;;;;;;;;;;;;;13.45;62.23;99693.69;1086442;54;19947;-78
2022/06/21 04:01:23;;;;;;;;;;;;;;;13.48;61.84;99696.00;1086429;54;19986;-78
2022/06/21 04:02:31;;;;;;;;;;;;;;;13.31;62.36;99693.34;1086062;54;20050;-79
2022/06/21 04:03:37;;;;;;;;;;;;;;;13.25;62.18;99694.84;1086015;54;19947;-79
2022/06/21 04:04:45;;;;;;;;;;;;;;;13.23;62.47;99701.41;1086300;54;19946;-78
2022/06/21 04:05:48;;;;;;;;;;;;;;;13.19;62.44;99695.56;1086059;47;20003;-78
2022/06/21 04:06:55;;;;;;;;;;;;;;;13.16;62.73;99693.19;1086081;54;19970;-79
2022/06/21 04:07:59;;;;;;;;;;;;;;;13.22;62.84;99694.38;1086245;54;19951;-78
2022/06/21 04:09:04;;;;;;;;;;;;;;;13.12;62.68;99694.56;1086058;54;19950;-78
2022/06/21 04:10:08;;;;;;;;;;;;;;;13.11;62.97;99700.94;1086173;54;19957;-78
2022/06/21 04:11:15;;;;;;;;;;;;;;;13.11;62.97;99691.03;1086518;54;20473;-78
2022/06/21 04:12:18;;;;;;;;;;;;;;;13.14;63.12;99697.06;1086623;54;20587;-79
2022/06/21 04:13:26;;;;;;;;;;;;;;;13.17;62.92;99696.75;1086693;54;20006;-79
2022/06/21 04:14:29;;;;;;;;;;;;;;;13.20;62.35;99694.53;1086925;54;19947;-79
2022/06/21 04:15:36;;;;;;;;;;;;;;;13.24;62.08;99687.81;1087227;54;19947;-78
2022/06/21 04:16:43;;;;;;;;;;;;;;;13.27;61.94;99695.53;1086759;54;20444;-78
2022/06/21 04:17:50;;;;;;;;;;;;;;;13.33;61.91;99696.69;1088171;39;20387;-79
2022/06/21 04:18:55;;;;;;;;;;;;;;;13.30;61.61;99697.03;1088169;39;20353;-78
2022/06/21 04:20:01;;;;;;;;;;;;;;;13.34;61.25;99695.69;1086824;54;19947;-79
2022/06/21 04:21:04;;;;;;;;;;;;;;;13.40;61.55;99697.72;1086609;54;19950;-79
2022/06/21 04:22:12;;;;;;;;;;;;;;;13.47;61.42;99708.59;1086495;54;19938;-78
2022/06/21 04:23:17;;;;;;;;;;;;;;;13.54;61.03;99706.09;1087917;39;20560;-78
2022/06/21 04:24:26;;;;;;;;;;;;;;;13.61;60.75;99703.53;1086541;47;19950;-78
2022/06/21 04:25:32;;;;;;;;;;;;;;;13.71;60.85;99694.25;1086163;54;19958;-79
2022/06/21 04:26:39;;;;;;;;;;;;;;;13.75;60.36;99694.75;1086131;54;20002;-78
2022/06/21 04:27:45;;;;;;;;;;;;;;;13.79;60.67;99693.38;1087235;54;19951;-78
2022/06/21 04:28:52;;;;;;;;;;;;;;;13.83;60.45;99686.66;1087274;54;20031;-81
2022/06/21 04:29:56;;;;;;;;;;;;;;;13.91;59.98;99688.47;1086907;54;19967;-79
2022/06/21 04:31:03;;;;;;;;;;;;;;;13.95;59.75;99694.34;1086826;54;19961;-78
2022/06/21 04:32:14;;;;;;;;;;;;;;;13.98;59.88;99700.19;1086868;54;19927;-79
2022/06/21 04:33:18;;;;;;;;;;;;;;;13.82;60.59;99695.72;1086775;54;19939;-78
2022/06/21 04:34:24;;;;;;;;;;;;;;;13.76;60.92;99699.13;1086805;54;19938;-77
2022/06/21 04:35:29;;;;;;;;;;;;;;;13.86;60.85;99697.06;1086844;54;19943;-78
2022/06/21 04:36:35;;;;;;;;;;;;;;;13.94;59.84;99693.47;1087018;54;19957;-78
2022/06/21 04:37:41;;;;;;;;;;;;;;;14.02;60.27;99692.59;1086907;54;19953;-78
2022/06/21 04:38:48;;;;;;;;;;;;;;;14.09;60.22;99690.88;1087193;54;19946;-79
2022/06/21 04:39:51;;;;;;;;;;;;;;;14.14;60.01;99693.91;1087124;54;19938;-78
2022/06/21 04:40:59;;;;;;;;;;;;;;;14.20;59.63;99687.81;1088689;31;20413;-77
2022/06/21 04:42:03;;;;;;;;;;;;;;;14.25;59.37;99691.81;1086888;54;19938;-78
2022/06/21 04:43:09;;;;;;;;;;;;;;;14.26;59.31;99683.56;1086037;54;19958;-77
2022/06/21 04:44:12;;;;;;;;;;;;;;;14.09;59.51;99690.06;1086451;54;19962;-77
2022/06/21 04:45:25;;;;;;;;;;;;;;;14.09;59.52;99684.69;1087337;47;19954;-77
2022/06/21 04:46:30;;;;;;;;;;;;;;;14.10;59.49;99687.19;1086833;54;20003;-79
2022/06/21 04:47:40;;;;;;;;;;;;;;;14.06;59.75;99695.78;1086768;54;19946;-78
2022/06/21 04:48:47;;;;;;;;;;;;;;;14.04;60.08;99702.16;1087509;39;20349;-78
2022/06/21 04:49:51;;;;;;;;;;;;;;;14.15;59.65;99700.94;1086672;54;19966;-78
2022/06/21 04:50:57;;;;;;;;;;;;;;;14.23;59.58;99696.53;1088100;47;19950;-78
2022/06/21 04:52:02;;;;;;;;;;;;;;;14.34;59.38;99706.88;1086783;54;19950;-78
2022/06/21 04:53:12;;;;;;;;;;;;;;;14.39;58.97;99696.41;1086499;54;19950;-79
2022/06/21 04:54:18;;;;;;;;;;;;;;;14.48;58.80;99695.34;1088372;39;20419;-79
2022/06/21 04:55:26;;;;;;;;;;;;;;;14.58;58.31;99694.28;1086451;54;19962;-78
2022/06/21 04:56:33;;;;;;;;;;;;;;;14.66;57.96;99696.91;1090292;39;20423;-80
2022/06/21 04:57:37;;;;;;;;;;;;;;;14.67;57.55;99693.22;1087792;54;19933;-79
2022/06/21 04:58:38;;;;;;;;;;;;;;;14.68;58.21;99705.66;1087802;54;19947;-80
2022/06/21 04:59:47;;;;;;;;;;;;;;;14.75;58.06;99700.41;1087806;46;19990;-80
2022/06/21 05:00:49;;;;;;;;;;;;;;;14.79;57.91;99702.56;1087776;54;19943;-81
2022/06/21 05:01:52;;;;;;;;;;;;;;;14.84;58.03;99693.94;1087891;54;19951;-79
2022/06/21 05:02:58;;;;;;;;;;;;;;;14.85;57.78;99702.84;1088593;46;19950;-81
2022/06/21 05:04:04;;;;;;;;;;;;;;;14.86;58.18;99696.44;1087911;54;19973;-80
2022/06/21 05:05:10;;;;;;;;;;;;;;;14.84;58.08;99691.25;1087688;54;19954;-81
2022/06/21 05:06:17;;;;;;;;;;;;;;;14.86;57.89;99697.28;1087956;54;19933;-79
2022/06/21 05:07:20;;;;;;;;;;;;;;;14.89;58.32;99701.47;1088086;54;19966;-86
2022/06/21 05:08:26;;;;;;;;;;;;;;;15.00;58.07;99694.81;1088447;54;19943;-85
2022/06/21 05:09:28;;;;;;;;;;;;;;;15.07;57.52;99698.44;1088170;54;19939;-83
2022/06/21 05:10:34;;;;;;;;;;;;;;;15.07;57.35;99699.28;1088028;54;19989;-83
2022/06/21 05:11:35;;;;;;;;;;;;;;;15.06;57.26;99697.59;1088524;54;19951;-85
2022/06/21 05:18:07;;;;;;;;;;;;;;;15.38;56.04;99695.63;1087927;54;19943;-83
2022/06/21 05:21:02;;;;;;;;;;;;;;;15.47;55.88;99698.22;1087982;54;19942;-82
2022/06/21 05:22:15;;;;;;;;;;;;;;;15.59;55.86;99691.31;1088316;54;19927;-81
2022/06/21 05:23:20;;;;;;;;;;;;;;;15.65;55.93;99681.66;1091139;46;20016;-84
2022/06/21 05:24:22;;;;;;;;;;;;;;;15.71;55.76;99694.41;1088238;54;19939;-83
2022/06/21 05:25:29;;;;;;;;;;;;;;;15.71;55.31;99691.72;1089065;46;19934;-82
2022/06/21 05:26:33;;;;;;;;;;;;;;;15.77;55.16;99690.97;1088654;46;19943;-84
2022/06/21 05:27:42;;;;;;;;;;;;;;;15.71;55.27;99692.53;1088213;54;19949;-84
2022/06/21 05:28:45;;;;;;;;;;;;;;;15.79;54.91;99696.16;1087747;54;19942;-85
2022/06/21 05:29:50;;;;;;;;;;;;;;;15.86;55.12;99700.63;1087741;54;19949;-83
2022/06/21 05:30:53;;;;;;;;;;;;;;;15.93;54.89;99692.66;1087890;46;19962;-84
2022/06/21 05:31:59;;;;;;;;;;;;;;;15.97;54.89;99693.91;1087660;54;19942;-84
2022/06/21 05:33:05;;;;;;;;;;;;;;;15.98;54.97;99692.91;1087686;54;19967;-84
2022/06/21 05:34:14;;;;;;;;;;;;;;;16.04;54.26;99697.56;1087772;54;19942;-86
2022/06/21 05:35:16;;;;;;;;;;;;;;;16.06;54.32;99697.34;1087805;47;20669;-84
2022/06/21 05:36:24;;;;;;;;;;;;;;;16.04;53.78;99694.88;1087666;54;19943;-83
2022/06/21 05:37:28;;;;;;;;;;;;;;;16.05;53.68;99701.94;1087702;54;19943;-84
2022/06/21 05:38:35;;;;;;;;;;;;;;;16.07;54.12;99696.34;1087781;54;19942;-84
2022/06/21 05:39:42;;;;;;;;;;;;;;;16.11;54.15;99694.09;1087955;54;19964;-84
2022/06/21 05:40:49;;;;;;;;;;;;;;;16.12;54.39;99693.06;1088045;54;19949;-82
2022/06/21 05:41:51;;;;;;;;;;;;;;;16.14;53.62;99691.84;1088090;54;19942;-85
2022/06/21 05:42:56;;;;;;;;;;;;;;;16.10;53.54;99700.50;1088141;54;19982;-83
2022/06/21 05:44:08;;;;;;;;;;;;;;;16.09;53.54;99693.44;1088452;54;19954;-80
2022/06/21 05:45:15;;;;;;;;;;;;;;;16.06;53.54;99694.66;1089972;46;19946;-80
2022/06/21 05:46:17;;;;;;;;;;;;;;;16.02;54.19;99690.66;1089292;46;19923;-83
2022/06/21 05:47:25;;;;;;;;;;;;;;;16.08;54.02;99694.47;1089473;46;19950;-81
2022/06/21 05:48:30;;;;;;;;;;;;;;;16.13;53.57;99683.97;1088562;54;20619;-79
2022/06/21 05:49:36;;;;;;;;;;;;;;;16.10;53.22;99687.88;1088526;54;19938;-82
2022/06/21 05:50:37;;;;;;;;;;;;;;;16.12;53.65;99684.97;1088660;54;19951;-83
2022/06/21 05:51:46;;;;;;;;;;;;;;;16.08;53.55;99673.75;1088549;54;19927;-84
2022/06/21 05:52:48;;;;;;;;;;;;;;;16.14;53.97;99677.53;1088427;54;19942;-83
2022/06/21 05:53:54;;;;;;;;;;;;;;;16.13;53.10;99678.56;1088135;54;19930;-84
2022/06/21 05:54:59;;;;;;;;;;;;;;;16.15;53.57;99680.03;1088301;47;19942;-83
2022/06/21 05:56:06;;;;;;;;;;;;;;;16.20;53.14;99685.69;1088332;54;19938;-81
2022/06/21 05:57:09;;;;;;;;;;;;;;;16.20;53.36;99684.88;1088352;54;19943;-84
2022/06/21 05:58:18;;;;;;;;;;;;;;;16.25;53.22;99689.69;1088303;54;19950;-82
2022/06/21 05:59:26;;;;;;;;;;;;;;;16.18;53.20;99690.47;1088305;54;19938;-82
2022/06/21 06:00:31;;;;;;;;;;;;;;;16.24;53.31;99685.31;1088230;54;19966;-83
2022/06/21 06:01:37;;;;;;;;;;;;;;;16.27;52.72;99685.75;1088228;54;19965;-82
2022/06/21 06:02:42;;;;;;;;;;;;;;;16.30;52.65;99685.41;1088329;54;19942;-85
2022/06/21 06:03:48;;;;;;;;;;;;;;;16.36;52.57;99690.00;1088239;54;19942;-82
2022/06/21 06:04:52;;;;;;;;;;;;;;;16.42;52.43;99677.63;1087886;54;19943;-81
2022/06/21 06:05:58;;;;;;;;;;;;;;;16.43;52.39;99675.78;1088002;54;19950;-81
2022/06/21 06:07:03;;;;;;;;;;;;;;;16.43;52.17;99675.78;1088015;54;19942;-82
2022/06/21 06:08:10;;;;;;;;;;;;;;;16.45;52.06;99673.69;1088883;39;20535;-80
2022/06/21 06:09:14;;;;;;;;;;;;;;;16.50;51.78;99680.19;1087950;54;19942;-84
2022/06/21 06:10:20;;;;;;;;;;;;;;;16.55;52.01;99678.78;1087975;54;19948;-83
2022/06/21 06:11:23;;;;;;;;;;;;;;;16.61;51.80;99678.00;1088510;46;19947;-87
2022/06/21 06:12:28;;;;;;;;;;;;;;;16.61;51.30;99672.63;1088025;54;19926;-85
2022/06/21 06:13:32;;;;;;;;;;;;;;;16.64;51.57;99675.75;1087792;54;19943;-84
2022/06/21 06:14:38;;;;;;;;;;;;;;;16.63;51.48;99671.38;1087959;54;20003;-84
2022/06/21 06:15:42;;;;;;;;;;;;;;;16.72;51.60;99673.97;1088108;54;19949;-81
2022/06/21 06:16:49;;;;;;;;;;;;;;;16.80;51.75;99668.44;1088469;39;21009;-84
2022/06/21 06:17:52;;;;;;;;;;;;;;;16.85;51.41;99663.28;1087890;54;19950;-82
2022/06/21 06:19:00;;;;;;;;;;;;;;;16.90;51.38;99659.97;1087993;54;19943;-81
2022/06/21 06:20:04;;;;;;;;;;;;;;;16.96;50.89;99659.22;1087970;54;19943;-83
2022/06/21 06:21:14;;;;;;;;;;;;;;;16.97;50.96;99659.03;1087958;54;19950;-79
2022/06/21 06:22:22;;;;;;;;;;;;;;;17.02;51.27;99668.41;1088046;54;19935;-80
2022/06/21 06:23:30;;;;;;;;;;;;;;;17.09;51.20;99670.13;1088066;54;19949;-84
2022/06/21 06:24:34;;;;;;;;;;;;;;;17.19;51.02;99677.06;1087795;54;20034;-80
2022/06/21 06:25:41;;;;;;;;;;;;;;;17.27;51.05;99680.44;1087950;54;20006;-82
2022/06/21 06:26:47;;;;;;;;;;;;;;;17.36;51.15;99685.69;1088069;54;19958;-83